Time;durP1;ratioP1;P1;durP2;ratioP2;P2;SDS_P1;SDS_P2;PMS_P1;PMS_P2;Temp;Humidity;BMP_temperature;BMP_pressure;BME280_temperature;BME280_humidity;BME280_pressure;Samples;Min_cycle;Max_cycle;Signal;HPM_P1;HPM_P2
2022/02/03 00:01:13;;;;;;;;;;;;;;;;;;5089059;28;20289;-65
2022/02/03 00:03:49;;;;;;;;;;;;;;;;;;5085122;28;19939;-64
2022/02/03 00:06:24;;;;;;;;;;;;;;;;;;5091228;28;19953;-64
2022/02/03 00:09:07;;;;;;;;;;;;;;;;;;5086637;28;19924;-65
2022/02/03 00:16:05;;;;;;;;;;;;;;;;;;5085306;28;19955;-65
2022/02/03 00:22:52;;;;;;;;;;;;;;;;;;5079396;28;20334;-65
2022/02/03 00:25:26;;;;;;;;;;;;;;;;;;5087883;28;20191;-65
2022/02/03 00:27:56;;;;;;;;;;;;;;;;;;5083237;28;19977;-65
2022/02/03 00:30:33;;;;;;;;;;;;;;;;;;5081363;28;20304;-65
2022/02/03 00:36:03;;;;;;;;;;;;;;;;;;5088599;28;19997;-65
2022/02/03 00:49:42;;;;;;;;;;;;;;;;;;5083918;28;20338;-65
2022/02/03 00:52:09;;;;;;;;;;;;;;;;;;5087075;28;19924;-65
2022/02/03 00:54:36;;;;;;;;;;;;;;;;;;5079508;28;19928;-65
2022/02/03 00:57:03;;;;;;;;;;;;;;;;;;5088608;28;19938;-65
2022/02/03 00:59:30;;;;;;;;;;;;;;;;;;5082622;28;19924;-65
2022/02/03 01:01:57;;;;;;;;;;;;;;;;;;5092994;28;19923;-65
2022/02/03 01:04:24;;;;;;;;;;;;;;;;;;5096549;28;20293;-64
2022/02/03 01:06:54;;;;;;;;;;;;;;;;;;5083410;28;20390;-65
2022/02/03 01:09:21;;;;;;;;;;;;;;;;;;5075938;28;20314;-64
2022/02/03 01:11:49;;;;;;;;;;;;;;;;;;5085579;28;19977;-64
2022/02/03 01:14:20;;;;;;;;;;;;;;;;;;5088511;28;19932;-65
2022/02/03 01:17:03;;;;;;;;;;;;;;;;;;5093291;28;20352;-65
2022/02/03 01:44:20;;;;;;;;;;;;;;;;;;5087491;28;19937;-64
2022/02/03 01:46:53;;;;;;;;;;;;;;;;;;5091870;28;20316;-64
2022/02/03 01:49:38;;;;;;;;;;;;;;;;;;5090188;28;19943;-64
2022/02/03 01:52:04;;;;;;;;;;;;;;;;;;5093737;28;19935;-65
2022/02/03 01:54:31;;;;;;;;;;;;;;;;;;5087845;28;19928;-64
2022/02/03 01:56:57;;;;;;;;;;;;;;;;;;5093066;28;19935;-65
2022/02/03 01:59:24;;;;;;;;;;;;;;;;;;5098397;28;19932;-64
2022/02/03 02:01:51;;;;;;;;;;;;;;;;;;5092937;28;19931;-64
2022/02/03 02:04:18;;;;;;;;;;;;;;;;;;5089208;28;19951;-64
2022/02/03 02:06:45;;;;;;;;;;;;;;;;;;5093212;28;20390;-64
2022/02/03 02:09:12;;;;;;;;;;;;;;;;;;5088876;28;20039;-64
2022/02/03 02:11:43;;;;;;;;;;;;;;;;;;5093719;28;19969;-64
2022/02/03 02:14:33;;;;;;;;;;;;;;;;;;5089254;28;19930;-64
2022/02/03 02:19:58;;;;;;;;;;;;;;;;;;5064324;28;19920;-64
2022/02/03 02:39:08;;;;;;;;;;;;;;;;;;5089900;28;19923;-64
2022/02/03 02:44:19;;;;;;;;;;;;;;;;;;5079440;28;19955;-64
2022/02/03 02:46:46;;;;;;;;;;;;;;;;;;5087693;28;19930;-64
2022/02/03 02:49:14;;;;;;;;;;;;;;;;;;5084494;28;19994;-64
2022/02/03 02:51:41;;;;;;;;;;;;;;;;;;5095078;28;19967;-65
2022/02/03 02:54:28;;;;;;;;;;;;;;;;;;5095286;28;20027;-65
2022/02/03 02:57:14;;;;;;;;;;;;;;;;;;5089967;28;19924;-65
2022/02/03 03:00:03;;;;;;;;;;;;;;;;;;5090448;28;19932;-65
2022/02/03 03:03:02;;;;;;;;;;;;;;;;;;5083642;28;19931;-65
2022/02/03 03:30:27;;;;;;;;;;;;;;;;;;5086643;28;20008;-65
2022/02/03 03:33:04;;;;;;;;;;;;;;;;;;5088183;28;20406;-64
2022/02/03 03:35:37;;;;;;;;;;;;;;;;;;5088723;28;19928;-65
2022/02/03 03:38:04;;;;;;;;;;;;;;;;;;5085002;28;19977;-65
2022/02/03 03:40:31;;;;;;;;;;;;;;;;;;5086039;28;19931;-65
2022/02/03 03:42:58;;;;;;;;;;;;;;;;;;5081861;28;20396;-65
2022/02/03 03:45:25;;;;;;;;;;;;;;;;;;5088437;28;19935;-65
2022/02/03 03:47:52;;;;;;;;;;;;;;;;;;5085043;28;19928;-65
2022/02/03 03:50:19;;;;;;;;;;;;;;;;;;5086898;28;19924;-65
2022/02/03 03:52:49;;;;;;;;;;;;;;;;;;5087981;28;20039;-65
2022/02/03 03:55:26;;;;;;;;;;;;;;;;;;5091869;28;20461;-65
2022/02/03 03:58:21;;;;;;;;;;;;;;;;;;5089833;28;20385;-64
2022/02/03 04:31:59;;;;;;;;;;;;;;;;;;5089639;28;20445;-65
2022/02/03 04:40:23;;;;;;;;;;;;;;;;;;5085134;28;19973;-65
2022/02/03 04:43:22;;;;;;;;;;;;;;;;;;5083499;28;19969;-65
2022/02/03 04:46:21;;;;;;;;;;;;;;;;;;5085061;28;19977;-65
2022/02/03 05:02:47;;;;;;;;;;;;;;;;;;5051047;28;20321;-65
2022/02/03 05:05:22;;;;;;;;;;;;;;;;;;5051344;28;19971;-65
2022/02/03 05:07:59;;;;;;;;;;;;;;;;;;5045134;28;19925;-65
2022/02/03 05:10:39;;;;;;;;;;;;;;;;;;5040957;28;19933;-65
2022/02/03 05:13:17;;;;;;;;;;;;;;;;;;5049961;28;19925;-65
2022/02/03 05:15:59;;;;;;;;;;;;;;;;;;5051134;28;19932;-65
2022/02/03 05:24:31;;;;;;;;;;;;;;;;;;5102881;27;19927;-65
2022/02/03 05:31:59;;;;;;;;;;;;;;;;;;5100331;28;20000;-65
2022/02/03 05:33:00;;;;;;;;;;;;;;;;;;5096822;28;20387;-65
2022/02/03 05:43:59;;;;;;;;;;;;;;;;;;5098796;28;20293;-65
2022/02/03 05:54:59;;;;;;;;;;;;;;;;;;5066497;28;20029;-65
2022/02/03 06:03:30;;;;;;;;;;;;;;;;;;5097965;28;19946;-66
2022/02/03 06:06:03;;;;;;;;;;;;;;;;;;5102697;28;19931;-66
2022/02/03 06:08:35;;;;;;;;;;;;;;;;;;5102305;28;20381;-66
2022/02/03 06:13:53;;;;;;;;;;;;;;;;;;5102004;28;19919;-65
2022/02/03 06:16:37;;;;;;;;;;;;;;;;;;5098891;28;19931;-65
2022/02/03 06:21:54;;;;;;;;;;;;;;;;;;5084213;28;19920;-65
2022/02/03 06:24:33;;;;;;;;;;;;;;;;;;5125844;27;20006;-65
2022/02/03 06:29:50;;;;;;;;;;;;;;;;;;5103453;27;19934;-65
2022/02/03 06:32:17;;;;;;;;;;;;;;;;;;5117294;28;19931;-65
2022/02/03 06:34:43;;;;;;;;;;;;;;;;;;5102304;27;19989;-65
2022/02/03 06:37:10;;;;;;;;;;;;;;;;;;5106293;28;19931;-65
2022/02/03 06:39:37;;;;;;;;;;;;;;;;;;5107525;28;19924;-65
2022/02/03 06:42:06;;;;;;;;;;;;;;;;;;5102659;28;19928;-65
2022/02/03 06:44:36;;;;;;;;;;;;;;;;;;5110133;27;19927;-65
2022/02/03 06:47:08;;;;;;;;;;;;;;;;;;5105867;28;19970;-65
2022/02/03 06:49:45;;;;;;;;;;;;;;;;;;5097606;28;20282;-66
2022/02/03 06:52:17;;;;;;;;;;;;;;;;;;5109866;28;19928;-65
2022/02/03 06:54:55;;;;;;;;;;;;;;;;;;5106439;27;19969;-65
2022/02/03 06:57:28;;;;;;;;;;;;;;;;;;5102867;28;19928;-65
2022/02/03 06:59:58;;;;;;;;;;;;;;;;;;5104860;28;20469;-64
2022/02/03 07:02:28;;;;;;;;;;;;;;;;;;5105335;28;20392;-66
2022/02/03 07:04:57;;;;;;;;;;;;;;;;;;5104622;28;19928;-66
2022/02/03 07:07:25;;;;;;;;;;;;;;;;;;5107028;28;19928;-65
2022/02/03 07:09:52;;;;;;;;;;;;;;;;;;5098707;28;19924;-65
2022/02/03 07:12:20;;;;;;;;;;;;;;;;;;5104117;28;19928;-65
2022/02/03 07:14:46;;;;;;;;;;;;;;;;;;5102178;28;19982;-65
2022/02/03 07:17:13;;;;;;;;;;;;;;;;;;5109601;28;19924;-65
2022/02/03 07:19:45;;;;;;;;;;;;;;;;;;5104285;28;19923;-65
2022/02/03 07:22:12;;;;;;;;;;;;;;;;;;5101184;28;20484;-66
2022/02/03 07:24:39;;;;;;;;;;;;;;;;;;5102567;28;19924;-66
2022/02/03 07:27:06;;;;;;;;;;;;;;;;;;5105643;27;20427;-66
2022/02/03 07:29:33;;;;;;;;;;;;;;;;;;5099158;28;19928;-66
2022/02/03 07:32:02;;;;;;;;;;;;;;;;;;5098865;28;20408;-66
2022/02/03 07:34:29;;;;;;;;;;;;;;;;;;5095928;28;19930;-66
2022/02/03 07:36:57;;;;;;;;;;;;;;;;;;5107086;28;19924;-66
2022/02/03 07:39:24;;;;;;;;;;;;;;;;;;5094396;28;19928;-66
2022/02/03 07:41:51;;;;;;;;;;;;;;;;;;5107800;28;20323;-66
2022/02/03 07:44:18;;;;;;;;;;;;;;;;;;5106289;28;19923;-66
2022/02/03 07:46:45;;;;;;;;;;;;;;;;;;5101638;28;19924;-66
2022/02/03 07:49:12;;;;;;;;;;;;;;;;;;5098249;27;19929;-65
2022/02/03 07:51:39;;;;;;;;;;;;;;;;;;5089901;27;19943;-65
2022/02/03 07:54:08;;;;;;;;;;;;;;;;;;5094203;28;20325;-66
2022/02/03 07:56:35;;;;;;;;;;;;;;;;;;5095239;28;19925;-66
2022/02/03 07:59:02;;;;;;;;;;;;;;;;;;5097369;28;19931;-66
2022/02/03 08:01:29;;;;;;;;;;;;;;;;;;5095377;28;19927;-66
2022/02/03 08:03:58;;;;;;;;;;;;;;;;;;5094686;28;20331;-66
2022/02/03 08:06:29;;;;;;;;;;;;;;;;;;5106014;28;19924;-66
2022/02/03 08:09:02;;;;;;;;;;;;;;;;;;5097145;28;19924;-66
2022/02/03 08:11:34;;;;;;;;;;;;;;;;;;5102425;28;19923;-66
2022/02/03 08:14:08;;;;;;;;;;;;;;;;;;5100972;28;19923;-66
2022/02/03 08:16:39;;;;;;;;;;;;;;;;;;5106484;28;19924;-66
2022/02/03 08:19:11;;;;;;;;;;;;;;;;;;5095154;28;19924;-64
2022/02/03 08:21:42;;;;;;;;;;;;;;;;;;5103085;28;19924;-65
2022/02/03 08:24:20;;;;;;;;;;;;;;;;;;5101283;28;19939;-65
2022/02/03 08:26:55;;;;;;;;;;;;;;;;;;5100287;28;20305;-65
2022/02/03 08:32:11;;;;;;;;;;;;;;;;;;5099764;28;19918;-65
2022/02/03 08:34:47;;;;;;;;;;;;;;;;;;5087319;28;19954;-65
2022/02/03 08:37:14;;;;;;;;;;;;;;;;;;5101138;28;19928;-65
2022/02/03 08:39:51;;;;;;;;;;;;;;;;;;5085814;28;20254;-65
2022/02/03 08:42:18;;;;;;;;;;;;;;;;;;5099169;28;19970;-65
2022/02/03 08:44:45;;;;;;;;;;;;;;;;;;5099278;28;20412;-65
2022/02/03 08:47:12;;;;;;;;;;;;;;;;;;5102781;28;20468;-65
2022/02/03 08:49:43;;;;;;;;;;;;;;;;;;5102597;28;20385;-65
2022/02/03 08:52:17;;;;;;;;;;;;;;;;;;5097268;28;20499;-65
2022/02/03 08:54:51;;;;;;;;;;;;;;;;;;5100255;27;19930;-65
2022/02/03 08:57:31;;;;;;;;;;;;;;;;;;5106153;27;19927;-65
2022/02/03 09:00:15;;;;;;;;;;;;;;;;;;5092105;28;20033;-65
2022/02/03 09:41:41;;;;;;;;;;;;;;;;;;5079777;28;20053;-65
2022/02/03 09:55:26;;;;;;;;;;;;;;;;;;5092812;28;20381;-65
2022/02/03 09:57:55;;;;;;;;;;;;;;;;;;5096712;28;19924;-65
2022/02/03 10:00:23;;;;;;;;;;;;;;;;;;5089687;28;19987;-65
2022/02/03 10:02:50;;;;;;;;;;;;;;;;;;5098016;28;20036;-66
2022/02/03 10:05:30;;;;;;;;;;;;;;;;;;5099837;28;20415;-65
2022/02/03 10:07:57;;;;;;;;;;;;;;;;;;5095478;28;19969;-65
2022/02/03 10:10:24;;;;;;;;;;;;;;;;;;5099097;28;19930;-65
2022/02/03 10:12:53;;;;;;;;;;;;;;;;;;5099304;28;19924;-66
2022/02/03 10:15:20;;;;;;;;;;;;;;;;;;5102651;28;19977;-65
2022/02/03 10:17:48;;;;;;;;;;;;;;;;;;5102749;28;19923;-65
2022/02/03 10:20:17;;;;;;;;;;;;;;;;;;5100529;28;19927;-65
2022/02/03 10:22:43;;;;;;;;;;;;;;;;;;5105891;28;20033;-65
2022/02/03 10:25:13;;;;;;;;;;;;;;;;;;5104296;28;19923;-65
2022/02/03 10:27:40;;;;;;;;;;;;;;;;;;5098088;28;19928;-65
2022/02/03 10:30:07;;;;;;;;;;;;;;;;;;5099795;28;19930;-65
2022/02/03 10:32:34;;;;;;;;;;;;;;;;;;5103141;28;20259;-65
2022/02/03 10:35:01;;;;;;;;;;;;;;;;;;5097907;28;19932;-66
2022/02/03 10:37:36;;;;;;;;;;;;;;;;;;5102938;28;19928;-65
2022/02/03 10:40:24;;;;;;;;;;;;;;;;;;5105571;28;19996;-66
2022/02/03 10:43:11;;;;;;;;;;;;;;;;;;5098385;28;20012;-65
2022/02/03 10:46:01;;;;;;;;;;;;;;;;;;5098519;28;19932;-65
2022/02/03 10:54:12;;;;;;;;;;;;;;;;;;5088179;28;19928;-65
2022/02/03 10:57:05;;;;;;;;;;;;;;;;;;5102913;28;19957;-65
2022/02/03 11:00:01;;;;;;;;;;;;;;;;;;5101717;28;19929;-65
2022/02/03 11:02:43;;;;;;;;;;;;;;;;;;5098577;28;20413;-65
2022/02/03 11:05:40;;;;;;;;;;;;;;;;;;5091134;28;19946;-65
2022/02/03 11:08:14;;;;;;;;;;;;;;;;;;5101094;27;19923;-65
2022/02/03 11:10:44;;;;;;;;;;;;;;;;;;5095659;28;19928;-66
2022/02/03 11:13:10;;;;;;;;;;;;;;;;;;5099216;28;19927;-65
2022/02/03 11:15:37;;;;;;;;;;;;;;;;;;5102703;28;19953;-65
2022/02/03 11:18:05;;;;;;;;;;;;;;;;;;5102333;28;19924;-65
2022/02/03 11:20:33;;;;;;;;;;;;;;;;;;5095303;28;19931;-65
2022/02/03 11:23:10;;;;;;;;;;;;;;;;;;5104674;27;20335;-65
2022/02/03 11:25:42;;;;;;;;;;;;;;;;;;5101748;28;19924;-65
2022/02/03 11:28:34;;;;;;;;;;;;;;;;;;5098978;28;19981;-64
2022/02/03 11:31:17;;;;;;;;;;;;;;;;;;5096114;28;19942;-65
2022/02/03 11:36:56;;;;;;;;;;;;;;;;;;5079371;28;19927;-65
2022/02/03 11:39:51;;;;;;;;;;;;;;;;;;5097991;28;19932;-65
2022/02/03 11:42:31;;;;;;;;;;;;;;;;;;5107973;28;20002;-65
2022/02/03 11:48:11;;;;;;;;;;;;;;;;;;5092822;28;20350;-64
2022/02/03 11:51:03;;;;;;;;;;;;;;;;;;5092910;28;19927;-65
2022/02/03 11:56:35;;;;;;;;;;;;;;;;;;5072103;28;19924;-65
2022/02/03 11:59:17;;;;;;;;;;;;;;;;;;5090586;28;20005;-65
2022/02/03 12:01:51;;;;;;;;;;;;;;;;;;5092745;27;19934;-65
2022/02/03 12:17:47;;;;;;;;;;;;;;;;;;5103165;28;20617;-65
2022/02/03 12:20:20;;;;;;;;;;;;;;;;;;5098213;28;19989;-65
2022/02/03 12:23:03;;;;;;;;;;;;;;;;;;5105517;28;19932;-65
2022/02/03 12:25:36;;;;;;;;;;;;;;;;;;5095772;28;19932;-65
2022/02/03 12:28:10;;;;;;;;;;;;;;;;;;5097112;28;19935;-65
2022/02/03 12:30:52;;;;;;;;;;;;;;;;;;5088680;28;19928;-64
2022/02/03 12:38:48;;;;;;;;;;;;;;;;;;5066067;28;19920;-64
2022/02/03 12:41:19;;;;;;;;;;;;;;;;;;5100397;28;20022;-64
2022/02/03 12:43:46;;;;;;;;;;;;;;;;;;5105182;28;19924;-64
2022/02/03 12:46:13;;;;;;;;;;;;;;;;;;5101152;28;20400;-64
2022/02/03 12:48:40;;;;;;;;;;;;;;;;;;5101859;28;19928;-64
2022/02/03 12:51:07;;;;;;;;;;;;;;;;;;5093542;28;19930;-65
2022/02/03 12:53:34;;;;;;;;;;;;;;;;;;5083571;28;19928;-65
2022/02/03 12:56:05;;;;;;;;;;;;;;;;;;5091123;28;20608;-65
2022/02/03 12:58:36;;;;;;;;;;;;;;;;;;5090909;28;19955;-65
2022/02/03 13:01:09;;;;;;;;;;;;;;;;;;5098580;28;19931;-65
2022/02/03 13:03:38;;;;;;;;;;;;;;;;;;5102032;28;19923;-65
2022/02/03 13:06:07;;;;;;;;;;;;;;;;;;5089615;28;19928;-65
2022/02/03 13:08:35;;;;;;;;;;;;;;;;;;5095713;28;19928;-64
2022/02/03 13:11:02;;;;;;;;;;;;;;;;;;5094564;28;20397;-66
2022/02/03 13:13:37;;;;;;;;;;;;;;;;;;5091749;28;19974;-65
2022/02/03 13:16:04;;;;;;;;;;;;;;;;;;5090424;28;19931;-65
2022/02/03 13:18:35;;;;;;;;;;;;;;;;;;5091984;28;20297;-64
2022/02/03 13:21:07;;;;;;;;;;;;;;;;;;5095454;28;19931;-66
2022/02/03 13:23:39;;;;;;;;;;;;;;;;;;5094391;28;19978;-66
2022/02/03 13:26:10;;;;;;;;;;;;;;;;;;5098383;28;20334;-63
2022/02/03 13:28:48;;;;;;;;;;;;;;;;;;5098269;28;19927;-65
2022/02/03 13:31:23;;;;;;;;;;;;;;;;;;5099818;28;19924;-66
2022/02/03 13:33:56;;;;;;;;;;;;;;;;;;5093737;28;19924;-65
2022/02/03 13:36:27;;;;;;;;;;;;;;;;;;5092447;28;19936;-65
2022/02/03 13:39:16;;;;;;;;;;;;;;;;;;5099414;22;19963;-65
2022/02/03 13:41:45;;;;;;;;;;;;;;;;;;5046859;28;19944;-65
2022/02/03 13:44:13;;;;;;;;;;;;;;;;;;5047107;28;19972;-64
2022/02/03 13:46:40;;;;;;;;;;;;;;;;;;5047351;28;19925;-62
2022/02/03 13:49:07;;;;;;;;;;;;;;;;;;5048726;28;19936;-63
2022/02/03 13:51:38;;;;;;;;;;;;;;;;;;5045822;28;19928;-63
2022/02/03 13:54:12;;;;;;;;;;;;;;;;;;5044090;28;20322;-62
2022/02/03 14:11:24;;;;;;;;;;;;;;;;;;5045202;28;21946;-64
2022/02/03 14:14:10;;;;;;;;;;;;;;;;;;5042381;28;19971;-63
2022/02/03 14:22:10;;;;;;;;;;;;;;;;;;5025891;28;19971;-64
2022/02/03 14:27:24;;;;;;;;;;;;;;;;;;5045117;28;19920;-63
2022/02/03 14:29:54;;;;;;;;;;;;;;;;;;5039330;28;19929;-64
2022/02/03 14:32:29;;;;;;;;;;;;;;;;;;5043189;28;19933;-64
2022/02/03 14:34:56;;;;;;;;;;;;;;;;;;5044588;28;19936;-64
2022/02/03 14:37:29;;;;;;;;;;;;;;;;;;5048028;28;19937;-64
2022/02/03 14:40:14;;;;;;;;;;;;;;;;;;5044367;28;20393;-64
2022/02/03 14:42:42;;;;;;;;;;;;;;;;;;5048680;28;19929;-64
2022/02/03 14:45:11;;;;;;;;;;;;;;;;;;5047032;28;20461;-64
2022/02/03 14:47:39;;;;;;;;;;;;;;;;;;5044321;28;19925;-64
2022/02/03 14:50:06;;;;;;;;;;;;;;;;;;5044200;28;20386;-64
2022/02/03 14:52:34;;;;;;;;;;;;;;;;;;5041104;28;19947;-64
2022/02/03 14:58:03;;;;;;;;;;;;;;;;;;5042092;28;19920;-64
2022/02/03 15:00:30;;;;;;;;;;;;;;;;;;5039290;28;19929;-64
2022/02/03 15:02:58;;;;;;;;;;;;;;;;;;5041514;28;19936;-64
2022/02/03 15:05:27;;;;;;;;;;;;;;;;;;5042558;28;19970;-64
2022/02/03 15:07:58;;;;;;;;;;;;;;;;;;5038570;28;19979;-64
2022/02/03 15:10:45;;;;;;;;;;;;;;;;;;5038640;28;20406;-64
2022/02/03 15:13:16;;;;;;;;;;;;;;;;;;5041274;28;19976;-65
2022/02/03 15:15:43;;;;;;;;;;;;;;;;;;5041721;28;19928;-65
2022/02/03 15:18:10;;;;;;;;;;;;;;;;;;5046143;28;19947;-65
2022/02/03 15:20:37;;;;;;;;;;;;;;;;;;5038614;28;19976;-65
2022/02/03 15:23:05;;;;;;;;;;;;;;;;;;5040242;28;20416;-65
2022/02/03 15:25:31;;;;;;;;;;;;;;;;;;5042117;28;20351;-65
2022/02/03 15:27:59;;;;;;;;;;;;;;;;;;5040323;28;20008;-65
2022/02/03 15:30:26;;;;;;;;;;;;;;;;;;5031457;28;20070;-65
2022/02/03 15:32:53;;;;;;;;;;;;;;;;;;5035490;28;20876;-65
2022/02/03 15:35:25;;;;;;;;;;;;;;;;;;5031066;28;19940;-65
2022/02/03 15:37:53;;;;;;;;;;;;;;;;;;5027011;28;21606;-65
2022/02/03 15:40:21;;;;;;;;;;;;;;;;;;5026566;28;21155;-65
2022/02/03 15:45:35;;;;;;;;;;;;;;;;;;5032885;28;19948;-65
2022/02/03 15:48:09;;;;;;;;;;;;;;;;;;5027265;28;19933;-65
2022/02/03 15:56:24;;;;;;;;;;;;;;;;;;5027679;28;19919;-64
2022/02/03 16:13:14;;;;;;;;;;;;;;;;;;5053186;28;19928;-64
2022/02/03 16:18:12;;;;;;;;;;;;;;;;;;5011870;28;19921;-64
2022/02/03 16:20:45;;;;;;;;;;;;;;;;;;5039523;28;19925;-65
2022/02/03 16:23:31;;;;;;;;;;;;;;;;;;5026435;28;19925;-64
2022/02/03 16:26:36;;;;;;;;;;;;;;;;;;5024874;28;19933;-64
2022/02/03 16:51:03;;;;;;;;;;;;;;;;;;5038369;28;20008;-64
2022/02/03 16:53:30;;;;;;;;;;;;;;;;;;5039607;28;20050;-64
2022/02/03 16:55:59;;;;;;;;;;;;;;;;;;5036314;28;20027;-64
2022/02/03 16:58:30;;;;;;;;;;;;;;;;;;5040380;28;19929;-64
2022/02/03 17:00:59;;;;;;;;;;;;;;;;;;5042305;28;19948;-64
2022/02/03 17:03:26;;;;;;;;;;;;;;;;;;5042003;28;19932;-64
2022/02/03 17:05:53;;;;;;;;;;;;;;;;;;5044135;28;19936;-64
2022/02/03 17:08:21;;;;;;;;;;;;;;;;;;5036594;28;20395;-64
2022/02/03 17:10:48;;;;;;;;;;;;;;;;;;5042272;28;19979;-64
2022/02/03 17:13:15;;;;;;;;;;;;;;;;;;5040789;28;20012;-62
2022/02/03 17:15:42;;;;;;;;;;;;;;;;;;5038729;28;20014;-62
2022/02/03 17:18:09;;;;;;;;;;;;;;;;;;5037725;28;19932;-63
2022/02/03 17:20:39;;;;;;;;;;;;;;;;;;5042374;28;19970;-63
2022/02/03 17:23:08;;;;;;;;;;;;;;;;;;5044187;28;19925;-63
2022/02/03 17:25:44;;;;;;;;;;;;;;;;;;5040772;28;19925;-63
2022/02/03 17:28:17;;;;;;;;;;;;;;;;;;5039213;28;20406;-63
2022/02/03 17:30:53;;;;;;;;;;;;;;;;;;5041693;28;19925;-62
2022/02/03 18:09:09;;;;;;;;;;;;;;;;;;5036945;28;19921;-62
2022/02/03 18:17:10;;;;;;;;;;;;;;;;;;5039587;28;20375;-62
2022/02/03 18:17:44;;;;;;;;;;;;;;;;;;5040934;28;19919;-63
2022/02/03 18:25:58;;;;;;;;;;;;;;;;;;5038346;28;20495;-63
2022/02/03 18:31:18;;;;;;;;;;;;;;;;;;5020008;28;19928;-64
2022/02/03 18:36:47;;;;;;;;;;;;;;;;;;5044598;28;19966;-62
2022/02/03 18:50:34;;;;;;;;;;;;;;;;;;5010214;28;19921;-62
2022/02/03 18:53:14;;;;;;;;;;;;;;;;;;5043773;28;19929;-62
2022/02/03 18:55:54;;;;;;;;;;;;;;;;;;5039035;28;20434;-63
2022/02/03 18:58:35;;;;;;;;;;;;;;;;;;5045426;28;20003;-63
2022/02/03 19:01:26;;;;;;;;;;;;;;;;;;5042364;28;20373;-63
2022/02/03 20:04:55;;;;;;;;;;;;;;;;;;5073213;28;19947;-65
2022/02/03 20:07:28;;;;;;;;;;;;;;;;;;5076402;28;20358;-64
2022/02/03 20:12:38;;;;;;;;;;;;;;;;;;5078062;28;19924;-65
2022/02/03 20:15:05;;;;;;;;;;;;;;;;;;5074800;28;20041;-66
2022/02/03 20:17:32;;;;;;;;;;;;;;;;;;5076712;28;19924;-65
2022/02/03 20:19:59;;;;;;;;;;;;;;;;;;5076667;28;19935;-64
2022/02/03 20:22:30;;;;;;;;;;;;;;;;;;5079211;28;20011;-65
2022/02/03 20:24:57;;;;;;;;;;;;;;;;;;5074913;28;19932;-66
2022/02/03 20:27:24;;;;;;;;;;;;;;;;;;5079162;28;19924;-65
2022/02/03 20:29:52;;;;;;;;;;;;;;;;;;5074569;28;19928;-65
2022/02/03 20:32:19;;;;;;;;;;;;;;;;;;5081174;28;19924;-65
2022/02/03 20:34:46;;;;;;;;;;;;;;;;;;5076526;28;19935;-65
2022/02/03 20:37:15;;;;;;;;;;;;;;;;;;5072792;28;19924;-64
2022/02/03 20:39:43;;;;;;;;;;;;;;;;;;5078544;28;19924;-64
2022/02/03 20:42:11;;;;;;;;;;;;;;;;;;5073509;28;19925;-65
2022/02/03 20:44:38;;;;;;;;;;;;;;;;;;5073363;28;20106;-65
2022/02/03 20:47:05;;;;;;;;;;;;;;;;;;5077042;28;19924;-64
2022/02/03 20:49:33;;;;;;;;;;;;;;;;;;5076739;28;19931;-64
2022/02/03 20:52:00;;;;;;;;;;;;;;;;;;5075355;28;19972;-61
2022/02/03 20:54:26;;;;;;;;;;;;;;;;;;5069024;28;19951;-61
2022/02/03 20:56:53;;;;;;;;;;;;;;;;;;5076435;28;19924;-61
2022/02/03 20:59:27;;;;;;;;;;;;;;;;;;5074879;28;19924;-62
2022/02/03 21:01:56;;;;;;;;;;;;;;;;;;5079385;28;20298;-60
2022/02/03 21:04:33;;;;;;;;;;;;;;;;;;5079617;28;19932;-61
2022/02/03 21:07:00;;;;;;;;;;;;;;;;;;5076077;28;20050;-61
2022/02/03 21:09:27;;;;;;;;;;;;;;;;;;5077856;28;19943;-61
2022/02/03 21:11:53;;;;;;;;;;;;;;;;;;5079926;28;20401;-62
2022/02/03 21:14:20;;;;;;;;;;;;;;;;;;5079268;28;19924;-64
2022/02/03 21:16:51;;;;;;;;;;;;;;;;;;5071909;28;20209;-64
2022/02/03 21:19:18;;;;;;;;;;;;;;;;;;5081203;28;20075;-64
2022/02/03 21:21:45;;;;;;;;;;;;;;;;;;5080558;28;19925;-61
2022/02/03 21:24:12;;;;;;;;;;;;;;;;;;5074059;28;19930;-64
2022/02/03 21:26:40;;;;;;;;;;;;;;;;;;5079889;28;19924;-64
2022/02/03 21:29:07;;;;;;;;;;;;;;;;;;5073912;28;20405;-63
2022/02/03 21:31:34;;;;;;;;;;;;;;;;;;5069037;28;20039;-63
2022/02/03 21:34:02;;;;;;;;;;;;;;;;;;5070125;28;19976;-63
2022/02/03 21:36:35;;;;;;;;;;;;;;;;;;5069376;28;20441;-63
2022/02/03 21:39:02;;;;;;;;;;;;;;;;;;5072109;28;19924;-63
2022/02/03 21:41:29;;;;;;;;;;;;;;;;;;5083248;28;19924;-63
2022/02/03 21:43:56;;;;;;;;;;;;;;;;;;5085476;28;20289;-63
2022/02/03 21:46:23;;;;;;;;;;;;;;;;;;5084939;28;20382;-63
2022/02/03 21:48:50;;;;;;;;;;;;;;;;;;5075700;28;19931;-63
2022/02/03 21:51:20;;;;;;;;;;;;;;;;;;5082616;28;19967;-64
2022/02/03 21:53:47;;;;;;;;;;;;;;;;;;5076867;28;19943;-64
2022/02/03 21:56:15;;;;;;;;;;;;;;;;;;5081964;28;19928;-63
2022/02/03 21:58:42;;;;;;;;;;;;;;;;;;5072927;28;19928;-63
2022/02/03 22:01:09;;;;;;;;;;;;;;;;;;5087909;28;19928;-63
2022/02/03 22:03:35;;;;;;;;;;;;;;;;;;5079733;28;19932;-64
2022/02/03 22:06:02;;;;;;;;;;;;;;;;;;5086311;28;20330;-63
2022/02/03 22:08:29;;;;;;;;;;;;;;;;;;5080993;28;19931;-64
2022/02/03 22:10:59;;;;;;;;;;;;;;;;;;5090767;28;20289;-64
2022/02/03 22:13:33;;;;;;;;;;;;;;;;;;5086349;28;19924;-64
2022/02/03 22:16:04;;;;;;;;;;;;;;;;;;5084680;28;19935;-63
2022/02/03 22:18:31;;;;;;;;;;;;;;;;;;5079925;28;19928;-63
2022/02/03 22:21:03;;;;;;;;;;;;;;;;;;5078676;28;19932;-63
2022/02/03 22:23:41;;;;;;;;;;;;;;;;;;5085502;28;19928;-63
2022/02/03 22:26:43;;;;;;;;;;;;;;;;;;5087102;28;19924;-63
2022/02/03 22:43:33;;;;;;;;;;;;;;;;;;5086425;28;19927;-63
2022/02/03 22:46:07;;;;;;;;;;;;;;;;;;5081388;28;20697;-64
2022/02/03 22:48:34;;;;;;;;;;;;;;;;;;5082488;28;20001;-64
2022/02/03 22:51:00;;;;;;;;;;;;;;;;;;5075085;28;19924;-63
2022/02/03 22:53:32;;;;;;;;;;;;;;;;;;5083017;28;19943;-63
2022/02/03 22:55:59;;;;;;;;;;;;;;;;;;5077485;28;19924;-63
2022/02/03 22:59:03;;;;;;;;;;;;;;;;;;5087874;28;20417;-63
2022/02/03 23:01:17;;;;;;;;;;;;;;;;;;5084070;28;19968;-63
2022/02/03 23:03:44;;;;;;;;;;;;;;;;;;5081816;28;19928;-63
2022/02/03 23:06:11;;;;;;;;;;;;;;;;;;5083871;28;20011;-63
2022/02/03 23:08:52;;;;;;;;;;;;;;;;;;5085233;28;19925;-64
2022/02/03 23:11:34;;;;;;;;;;;;;;;;;;5089064;28;19955;-63
2022/02/03 23:14:08;;;;;;;;;;;;;;;;;;5079061;28;20397;-63
2022/02/03 23:16:44;;;;;;;;;;;;;;;;;;5084705;28;20298;-63
2022/02/03 23:19:30;;;;;;;;;;;;;;;;;;5078924;28;19975;-64
2022/02/03 23:22:10;;;;;;;;;;;;;;;;;;5081247;28;19928;-64
2022/02/03 23:24:37;;;;;;;;;;;;;;;;;;5083066;28;19934;-64
2022/02/03 23:27:21;;;;;;;;;;;;;;;;;;5082888;28;19925;-64
2022/02/03 23:29:49;;;;;;;;;;;;;;;;;;5086363;28;19925;-63
2022/02/03 23:32:16;;;;;;;;;;;;;;;;;;5079311;28;19931;-63
2022/02/03 23:34:48;;;;;;;;;;;;;;;;;;5082956;28;20046;-63
2022/02/03 23:37:15;;;;;;;;;;;;;;;;;;5086854;28;19928;-63
2022/02/03 23:39:51;;;;;;;;;;;;;;;;;;5088520;28;20294;-64
2022/02/03 23:45:08;;;;;;;;;;;;;;;;;;5089466;28;20297;-63
